createdAt,value
2023-05-05T00:01:19.381Z,10.46
2023-05-05T00:03:48.931Z,10.45
2023-05-05T00:06:18.545Z,10.44
2023-05-05T00:08:47.913Z,10.43
2023-05-05T00:11:17.340Z,10.42
2023-05-05T00:13:47.357Z,10.40
2023-05-05T00:16:18.268Z,10.36
2023-05-05T00:18:48.193Z,10.31
2023-05-05T00:21:17.758Z,10.26
2023-05-05T00:23:47.126Z,10.23
2023-05-05T00:26:16.514Z,10.21
2023-05-05T00:28:49.686Z,10.19
2023-05-05T00:31:19.383Z,10.17
2023-05-05T00:33:48.687Z,10.14
2023-05-05T00:36:23.524Z,10.11
2023-05-05T00:38:52.960Z,10.09
2023-05-05T00:41:22.390Z,10.07
2023-05-05T00:43:52.720Z,10.03
2023-05-05T00:46:28.306Z,9.98
2023-05-05T00:48:57.978Z,9.90
2023-05-05T00:51:28.694Z,9.84
2023-05-05T00:53:58.509Z,9.78
2023-05-05T00:56:28.416Z,9.73
2023-05-05T00:58:59.281Z,9.69
2023-05-05T01:01:28.924Z,9.63
2023-05-05T01:03:58.993Z,9.58
2023-05-05T01:07:12.943Z,9.52
2023-05-05T01:10:22.385Z,9.44
2023-05-05T01:13:17.070Z,9.35
2023-05-05T01:16:09.560Z,9.27
2023-05-05T01:19:01.060Z,9.15
2023-05-05T01:21:56.345Z,9.07
2023-05-05T01:25:04.417Z,9.01
2023-05-05T01:28:31.436Z,8.97
2023-05-05T01:31:51.953Z,8.95
2023-05-05T01:34:28.504Z,8.94
2023-05-05T01:37:19.298Z,8.93
2023-05-05T01:39:57.962Z,8.92
2023-05-05T01:42:30.086Z,8.90
2023-05-05T01:45:08.743Z,8.89
2023-05-05T01:47:40.524Z,8.88
2023-05-05T01:50:12.478Z,8.87
2023-05-05T01:52:43.697Z,8.86
2023-05-05T01:55:18.233Z,8.84
2023-05-05T01:57:49.446Z,8.83
2023-05-05T02:00:20.430Z,8.80
2023-05-05T02:02:50.887Z,8.77
2023-05-05T02:05:24.660Z,8.74
2023-05-05T02:07:59.176Z,8.69
2023-05-05T02:10:30.081Z,8.64
2023-05-05T02:13:05.006Z,8.61
2023-05-05T02:15:38.688Z,8.59
2023-05-05T02:18:08.737Z,8.59
2023-05-05T02:20:41.876Z,8.58
2023-05-05T02:23:12.660Z,8.56
2023-05-05T02:25:53.676Z,8.51
2023-05-05T02:28:42.559Z,8.39
2023-05-05T02:31:14.150Z,8.30
2023-05-05T02:33:47.745Z,8.29
2023-05-05T02:36:28.037Z,8.30
2023-05-05T02:39:07.674Z,8.32
2023-05-05T02:41:43.578Z,8.34
2023-05-05T02:44:22.524Z,8.36
2023-05-05T02:46:53.747Z,8.34
2023-05-05T02:49:23.813Z,8.33
2023-05-05T02:51:55.523Z,8.35
2023-05-05T02:54:29.130Z,8.38
2023-05-05T02:57:02.068Z,8.42
2023-05-05T02:59:50.414Z,8.47
2023-05-05T03:03:06.902Z,8.52
2023-05-05T03:06:01.172Z,8.55
2023-05-05T03:08:44.161Z,8.55
2023-05-05T03:11:26.547Z,8.58
2023-05-05T03:14:09.065Z,8.63
2023-05-05T03:16:42.695Z,8.67
2023-05-05T03:19:21.490Z,8.70
2023-05-05T03:21:54.872Z,8.73
2023-05-05T03:24:27.081Z,8.75
2023-05-05T03:27:03.320Z,8.76
2023-05-05T03:29:38.342Z,8.78
2023-05-05T03:32:10.870Z,8.82
2023-05-05T03:34:42.576Z,8.85
2023-05-05T03:37:12.600Z,8.88
2023-05-05T03:39:52.862Z,8.91
2023-05-05T03:42:25.798Z,8.94
2023-05-05T03:44:58.640Z,8.99
2023-05-05T03:47:28.210Z,9.04
2023-05-05T03:49:57.699Z,9.10
2023-05-05T03:52:28.079Z,9.16
2023-05-05T03:54:58.040Z,9.23
2023-05-05T03:57:27.939Z,9.32
2023-05-05T03:59:59.064Z,9.40
2023-05-05T04:02:29.244Z,9.49
2023-05-05T04:04:58.782Z,9.60
2023-05-05T04:07:28.737Z,9.70
2023-05-05T04:09:58.127Z,9.79
2023-05-05T04:12:29.157Z,9.88
2023-05-05T04:15:01.465Z,9.98
2023-05-05T04:17:31.415Z,10.08
2023-05-05T04:20:01.151Z,10.18
2023-05-05T04:22:35.155Z,10.26
2023-05-05T04:25:06.817Z,10.30
2023-05-05T04:27:36.934Z,10.35
2023-05-05T04:30:09.693Z,10.37
2023-05-05T04:32:44.689Z,10.34
2023-05-05T04:35:16.346Z,10.35
2023-05-05T04:37:46.227Z,10.34
2023-05-05T04:40:19.389Z,10.41
2023-05-05T04:42:49.814Z,10.48
2023-05-05T04:45:19.515Z,10.52
2023-05-05T04:47:49.784Z,10.65
2023-05-05T04:50:21.223Z,10.75
2023-05-05T04:52:55.111Z,10.85
2023-05-05T04:55:24.947Z,11.01
2023-05-05T04:57:55.584Z,11.17
2023-05-05T05:00:26.061Z,11.33
2023-05-05T05:02:57.262Z,11.49
2023-05-05T05:05:26.905Z,11.62
2023-05-05T05:07:56.364Z,11.77
2023-05-05T05:10:26.435Z,11.81
2023-05-05T05:12:57.031Z,11.73
2023-05-05T05:15:27.097Z,11.71
2023-05-05T05:17:56.712Z,11.59
2023-05-05T05:20:27.065Z,11.60
2023-05-05T05:22:57.567Z,11.45
2023-05-05T05:25:27.529Z,10.98
2023-05-05T05:28:08.857Z,10.87
2023-05-05T05:30:41.314Z,10.84
2023-05-05T05:33:11.674Z,11.04
2023-05-05T05:35:42.045Z,11.27
2023-05-05T05:38:12.367Z,11.52
2023-05-05T05:40:42.499Z,11.73
2023-05-05T05:43:12.394Z,11.92
2023-05-05T05:45:42.052Z,12.12
2023-05-05T05:48:12.526Z,12.28
2023-05-05T05:50:42.307Z,12.43
2023-05-05T05:53:11.772Z,12.46
2023-05-05T05:55:41.612Z,12.46
2023-05-05T05:58:11.197Z,12.52
2023-05-05T06:00:40.675Z,12.67
2023-05-05T06:03:14.618Z,12.81
2023-05-05T06:05:46.476Z,12.94
2023-05-05T06:08:16.270Z,13.13
2023-05-05T06:10:48.666Z,13.35
2023-05-05T06:13:29.866Z,13.57
2023-05-05T06:16:08.020Z,13.80
2023-05-05T06:20:00.038Z,13.98
2023-05-05T06:22:30.411Z,14.14
2023-05-05T06:25:00.761Z,14.27
2023-05-05T06:27:30.691Z,14.43
2023-05-05T06:30:00.644Z,14.58
2023-05-05T06:32:31.485Z,14.70
2023-05-05T06:35:01.385Z,14.80
2023-05-05T06:37:30.896Z,14.91
2023-05-05T06:40:00.356Z,15.08
2023-05-05T06:42:32.340Z,15.20
2023-05-05T06:45:05.296Z,15.35
2023-05-05T06:47:35.004Z,15.46
2023-05-05T06:50:04.815Z,15.57
2023-05-05T06:52:34.404Z,15.70
2023-05-05T06:55:04.793Z,15.82
2023-05-05T06:57:34.692Z,15.97
2023-05-05T07:00:09.381Z,16.08
2023-05-05T07:02:40.662Z,16.18
2023-05-05T07:05:10.293Z,16.24
2023-05-05T07:07:53.802Z,16.38
2023-05-05T07:10:28.314Z,16.58
2023-05-05T07:12:59.760Z,16.75
2023-05-05T07:15:30.531Z,16.79
2023-05-05T07:18:00.244Z,16.87
2023-05-05T07:20:34.115Z,16.97
2023-05-05T07:23:27.306Z,17.17
2023-05-05T07:25:59.949Z,17.44
2023-05-05T07:28:29.435Z,17.58
2023-05-05T07:30:58.781Z,17.74
2023-05-05T07:33:28.465Z,17.84
2023-05-05T07:35:57.805Z,17.92
2023-05-05T07:38:29.172Z,18.06
2023-05-05T07:40:59.108Z,18.15
2023-05-05T07:43:28.614Z,18.17
2023-05-05T07:45:59.601Z,18.17
2023-05-05T07:48:31.808Z,18.22
2023-05-05T07:51:01.950Z,18.33
2023-05-05T07:53:33.083Z,18.47
2023-05-05T07:56:02.964Z,18.59
2023-05-05T07:58:33.639Z,18.71
2023-05-05T08:01:04.019Z,18.83
2023-05-05T08:03:38.757Z,18.83
2023-05-05T08:06:10.258Z,18.74
2023-05-05T08:08:39.877Z,18.81
2023-05-05T08:11:09.802Z,18.92
2023-05-05T08:16:30.363Z,19.21
2023-05-05T08:19:05.063Z,19.37
2023-05-05T08:21:39.396Z,19.38
2023-05-05T08:24:10.419Z,19.21
2023-05-05T08:26:40.352Z,19.34
2023-05-05T08:29:11.884Z,19.37
2023-05-05T08:31:42.690Z,19.47
2023-05-05T08:34:13.694Z,19.56
2023-05-05T08:36:43.897Z,19.66
2023-05-05T08:39:15.285Z,19.80
2023-05-05T08:41:44.790Z,19.86
2023-05-05T08:44:24.062Z,19.88
2023-05-05T08:46:56.006Z,19.90
2023-05-05T08:49:26.422Z,19.74
2023-05-05T08:52:03.332Z,19.49
2023-05-05T08:54:51.964Z,19.71
2023-05-05T08:57:32.735Z,19.95
2023-05-05T09:00:04.413Z,20.23
2023-05-05T09:02:35.454Z,20.44
2023-05-05T09:05:07.562Z,20.54
2023-05-05T09:08:02.676Z,20.62
2023-05-05T09:10:33.848Z,20.87
2023-05-05T09:13:07.324Z,20.96
2023-05-05T09:15:42.288Z,20.99
2023-05-05T09:18:13.335Z,21.11
2023-05-05T09:20:43.040Z,21.37
2023-05-05T09:23:16.418Z,21.64
2023-05-05T09:26:09.315Z,21.84
2023-05-05T09:28:39.358Z,21.82
2023-05-05T09:31:16.660Z,21.70
2023-05-05T09:33:46.726Z,21.63
2023-05-05T09:36:17.630Z,21.76
2023-05-05T09:39:07.669Z,22.08
2023-05-05T09:41:42.744Z,22.44
2023-05-05T09:44:13.277Z,22.45
2023-05-05T09:46:55.386Z,22.35
2023-05-05T09:49:27.510Z,22.67
2023-05-05T09:51:59.376Z,23.12
2023-05-05T09:54:30.910Z,23.34
2023-05-05T09:57:00.305Z,23.22
2023-05-05T09:59:31.271Z,23.03
2023-05-05T10:02:15.468Z,23.11
2023-05-05T10:04:45.043Z,23.38
2023-05-05T10:07:25.112Z,23.65
2023-05-05T10:09:55.237Z,23.58
2023-05-05T10:12:26.741Z,23.50
2023-05-05T10:14:57.194Z,23.50
2023-05-05T10:17:31.120Z,23.71
2023-05-05T10:20:04.205Z,23.89
2023-05-05T10:22:35.425Z,24.11
2023-05-05T10:25:13.741Z,24.20
2023-05-05T10:27:51.470Z,24.19
2023-05-05T10:30:30.814Z,24.06
2023-05-05T10:33:31.471Z,23.96
2023-05-05T10:36:07.292Z,23.79
2023-05-05T10:38:42.676Z,23.57
2023-05-05T10:41:14.759Z,23.41
2023-05-05T10:43:45.115Z,23.45
2023-05-05T10:46:15.841Z,23.34
2023-05-05T10:49:26.008Z,22.70
2023-05-05T10:52:09.861Z,22.25
2023-05-05T10:55:03.809Z,22.63
2023-05-05T10:57:40.186Z,23.14
2023-05-05T11:00:11.011Z,23.45
2023-05-05T11:02:42.157Z,23.74
2023-05-05T11:05:23.762Z,23.95
2023-05-05T11:07:53.370Z,24.08
2023-05-05T11:10:23.883Z,24.33
2023-05-05T11:12:59.490Z,24.55
2023-05-05T11:15:30.464Z,24.51
2023-05-05T11:18:07.507Z,24.61
2023-05-05T11:20:39.800Z,24.43
2023-05-05T11:23:09.385Z,23.89
2023-05-05T11:25:43.554Z,23.66
2023-05-05T11:28:33.634Z,23.53
2023-05-05T11:31:03.676Z,23.40
2023-05-05T11:33:38.494Z,23.35
2023-05-05T11:36:16.688Z,23.35
2023-05-05T11:39:21.350Z,23.43
2023-05-05T11:42:28.757Z,23.72
2023-05-05T11:45:22.031Z,23.75
2023-05-05T11:47:51.442Z,23.55
2023-05-05T11:50:23.353Z,23.50
2023-05-05T11:52:52.929Z,23.67
2023-05-05T11:55:22.806Z,23.62
2023-05-05T11:57:52.524Z,23.51
2023-05-05T12:00:37.793Z,23.40
2023-05-05T12:03:14.747Z,23.62
2023-05-05T12:05:44.215Z,24.05
2023-05-05T12:08:15.000Z,24.33
2023-05-05T12:10:44.651Z,24.47
2023-05-05T12:13:20.112Z,24.52
2023-05-05T12:15:49.806Z,24.38
2023-05-05T12:18:20.922Z,24.16
2023-05-05T12:20:51.369Z,24.10
2023-05-05T12:23:23.539Z,24.28
2023-05-05T12:25:53.609Z,24.60
2023-05-05T12:28:23.144Z,24.96
2023-05-05T12:30:59.687Z,25.28
2023-05-05T12:33:30.576Z,25.58
2023-05-05T12:35:59.944Z,25.70
2023-05-05T12:38:32.818Z,25.74
2023-05-05T12:41:04.573Z,25.70
2023-05-05T12:43:35.539Z,25.50
2023-05-05T12:46:07.770Z,25.22
2023-05-05T12:48:39.158Z,25.02
2023-05-05T12:51:18.237Z,24.89
2023-05-05T12:53:50.435Z,25.05
2023-05-05T12:56:38.887Z,25.35
2023-05-05T12:59:30.920Z,25.32
2023-05-05T13:02:01.832Z,25.13
2023-05-05T13:04:31.774Z,25.05
2023-05-05T13:07:15.583Z,24.93
2023-05-05T13:09:45.431Z,24.93
2023-05-05T13:12:19.499Z,24.96
2023-05-05T13:14:50.972Z,24.92
2023-05-05T13:17:20.424Z,24.76
2023-05-05T13:19:49.809Z,24.62
2023-05-05T13:22:19.268Z,24.43
2023-05-05T13:25:07.372Z,24.39
2023-05-05T13:27:38.057Z,24.42
2023-05-05T13:30:10.537Z,24.36
2023-05-05T13:32:39.970Z,24.16
2023-05-05T13:35:11.592Z,24.02
2023-05-05T13:37:42.775Z,23.84
2023-05-05T13:40:13.494Z,23.81
2023-05-05T13:42:43.502Z,24.34
2023-05-05T13:45:14.410Z,25.14
2023-05-05T13:47:45.947Z,25.93
2023-05-05T13:50:15.335Z,26.68
2023-05-05T13:52:45.339Z,27.40
2023-05-05T13:55:15.108Z,27.79
2023-05-05T13:57:48.223Z,27.79
2023-05-05T14:00:18.568Z,27.48
2023-05-05T14:02:48.362Z,27.19
2023-05-05T14:05:18.045Z,26.93
2023-05-05T14:07:47.912Z,26.67
2023-05-05T14:10:17.515Z,26.31
2023-05-05T14:12:47.861Z,25.98
2023-05-05T14:15:17.357Z,25.68
2023-05-05T14:17:46.967Z,25.46
2023-05-05T14:20:16.378Z,25.26
2023-05-05T14:22:48.224Z,25.06
2023-05-05T14:25:18.650Z,24.83
2023-05-05T14:27:48.969Z,24.57
2023-05-05T14:30:18.402Z,24.36
2023-05-05T14:32:48.268Z,24.27
2023-05-05T14:35:18.253Z,24.24
2023-05-05T14:37:47.714Z,24.20
2023-05-05T14:40:17.174Z,24.19
2023-05-05T14:42:46.674Z,24.13
2023-05-05T14:45:17.455Z,24.34
2023-05-05T14:47:47.020Z,24.85
2023-05-05T14:50:17.924Z,25.30
2023-05-05T14:52:47.676Z,25.56
2023-05-05T14:55:17.307Z,25.58
2023-05-05T14:57:47.956Z,25.47
2023-05-05T15:00:17.798Z,25.33
2023-05-05T15:02:48.512Z,25.17
2023-05-05T15:05:18.599Z,24.99
2023-05-05T15:07:48.067Z,24.79
2023-05-05T15:10:18.638Z,24.77
2023-05-05T15:12:51.215Z,24.90
2023-05-05T15:15:20.784Z,25.03
2023-05-05T15:17:51.968Z,25.01
2023-05-05T15:20:23.151Z,24.81
2023-05-05T15:22:55.317Z,24.61
2023-05-05T15:25:25.145Z,24.46
2023-05-05T15:27:55.155Z,24.35
2023-05-05T15:30:25.471Z,24.21
2023-05-05T15:32:55.305Z,24.08
2023-05-05T15:35:27.821Z,23.94
2023-05-05T15:37:57.263Z,23.75
2023-05-05T15:40:27.004Z,23.59
2023-05-05T15:42:57.715Z,23.47
2023-05-05T15:45:27.285Z,23.44
2023-05-05T15:47:58.893Z,23.50
2023-05-05T15:50:28.369Z,23.56
2023-05-05T15:52:57.982Z,23.72
2023-05-05T15:55:28.043Z,23.83
2023-05-05T15:57:58.701Z,23.78
2023-05-05T16:00:28.350Z,23.64
2023-05-05T16:03:01.990Z,23.51
2023-05-05T16:05:31.549Z,23.37
2023-05-05T16:08:00.990Z,23.23
2023-05-05T16:10:32.008Z,23.10
2023-05-05T16:13:02.637Z,22.95
2023-05-05T16:15:32.251Z,22.80
2023-05-05T16:18:03.084Z,22.66
2023-05-05T16:20:33.072Z,22.51
2023-05-05T16:23:03.368Z,22.37
2023-05-05T16:25:32.815Z,22.22
2023-05-05T16:28:02.251Z,22.08
2023-05-05T16:30:32.899Z,21.91
2023-05-05T16:33:02.611Z,21.77
2023-05-05T16:35:32.094Z,21.65
2023-05-05T16:38:01.814Z,21.53
2023-05-05T16:40:31.374Z,21.42
2023-05-05T16:43:01.184Z,21.29
2023-05-05T16:45:30.679Z,21.18
2023-05-05T16:48:00.373Z,21.08
2023-05-05T16:50:29.909Z,20.95
2023-05-05T16:52:59.415Z,20.82
2023-05-05T16:55:28.790Z,20.69
2023-05-05T16:57:58.295Z,20.57
2023-05-05T17:00:28.177Z,20.45
2023-05-05T17:02:58.992Z,20.35
2023-05-05T17:05:29.604Z,20.26
2023-05-05T17:08:03.309Z,20.18
2023-05-05T17:10:32.593Z,20.09
2023-05-05T17:13:02.189Z,19.98
2023-05-05T17:15:31.805Z,19.89
2023-05-05T17:18:01.266Z,19.79
2023-05-05T17:20:32.114Z,19.67
2023-05-05T17:23:05.341Z,19.59
2023-05-05T17:25:36.059Z,19.53
2023-05-05T17:28:05.712Z,19.50
2023-05-05T17:30:35.230Z,19.45
2023-05-05T17:33:04.761Z,19.40
2023-05-05T17:35:34.280Z,19.35
2023-05-05T17:38:03.668Z,19.30
2023-05-05T17:40:33.060Z,19.24
2023-05-05T17:43:02.468Z,19.19
2023-05-05T17:45:31.932Z,19.13
2023-05-05T17:48:01.311Z,19.09
2023-05-05T17:50:30.853Z,19.04
2023-05-05T17:53:00.878Z,19.00
2023-05-05T17:55:30.188Z,18.97
2023-05-05T17:57:59.772Z,18.93
2023-05-05T18:00:29.167Z,18.90
2023-05-05T18:02:58.584Z,18.86
2023-05-05T18:05:28.029Z,18.83
2023-05-05T18:07:57.389Z,18.82
2023-05-05T18:10:26.704Z,18.79
2023-05-05T18:12:56.399Z,18.75
2023-05-05T18:15:26.637Z,18.71
2023-05-05T18:17:56.425Z,18.68
2023-05-05T18:20:28.180Z,18.62
2023-05-05T18:22:59.598Z,18.56
2023-05-05T18:25:29.405Z,18.52
2023-05-05T18:27:58.878Z,18.47
2023-05-05T18:30:28.826Z,18.42
2023-05-05T18:32:58.215Z,18.36
2023-05-05T18:35:28.936Z,18.32
2023-05-05T18:37:58.330Z,18.27
2023-05-05T18:40:27.942Z,18.22
2023-05-05T18:42:57.702Z,18.18
2023-05-05T18:45:30.158Z,18.13
2023-05-05T18:47:59.934Z,18.08
2023-05-05T18:50:29.488Z,18.02
2023-05-05T18:52:58.888Z,17.99
2023-05-05T18:55:28.304Z,17.94
2023-05-05T18:57:58.459Z,17.89
2023-05-05T19:00:29.002Z,17.85
2023-05-05T19:02:58.754Z,17.79
2023-05-05T19:05:28.842Z,17.74
2023-05-05T19:07:58.381Z,17.70
2023-05-05T19:10:27.904Z,17.67
2023-05-05T19:12:57.836Z,17.61
2023-05-05T19:15:27.691Z,17.57
2023-05-05T19:18:06.994Z,17.50
2023-05-05T19:20:38.837Z,17.44
2023-05-05T19:23:11.892Z,17.38
2023-05-05T19:25:41.589Z,17.32
2023-05-05T19:28:12.212Z,17.26
2023-05-05T19:30:42.064Z,17.21
2023-05-05T19:33:11.624Z,17.16
2023-05-05T19:35:41.281Z,17.11
2023-05-05T19:38:10.981Z,17.06
2023-05-05T19:40:41.675Z,17.01
2023-05-05T19:43:11.116Z,16.98
2023-05-05T19:45:40.659Z,16.93
2023-05-05T19:48:10.127Z,16.88
2023-05-05T19:50:39.547Z,16.82
2023-05-05T19:53:10.762Z,16.75
2023-05-05T19:55:40.297Z,16.71
2023-05-05T19:58:11.095Z,16.65
2023-05-05T20:00:40.641Z,16.59
2023-05-05T20:03:10.142Z,16.53
2023-05-05T20:05:39.753Z,16.47
2023-05-05T20:08:11.602Z,16.40
2023-05-05T20:10:41.187Z,16.33
2023-05-05T20:13:12.109Z,16.27
2023-05-05T20:15:41.809Z,16.21
2023-05-05T20:18:11.144Z,16.17
2023-05-05T20:20:40.789Z,16.10
2023-05-05T20:23:14.759Z,15.96
2023-05-05T20:25:44.083Z,15.83
2023-05-05T20:28:13.401Z,15.73
2023-05-05T20:30:42.672Z,15.63
2023-05-05T20:33:12.128Z,15.58
2023-05-05T20:35:41.666Z,15.52
2023-05-05T20:38:11.356Z,15.48
2023-05-05T20:40:41.766Z,15.43
2023-05-05T20:43:11.347Z,15.39
2023-05-05T20:45:41.346Z,15.35
2023-05-05T20:48:11.620Z,15.32
2023-05-05T20:50:42.055Z,15.24
2023-05-05T20:53:16.252Z,15.17
2023-05-05T20:55:50.012Z,15.11
2023-05-05T20:58:19.107Z,15.05
2023-05-05T21:00:48.774Z,15.00
2023-05-05T21:03:18.141Z,14.94
2023-05-05T21:05:47.784Z,14.89
2023-05-05T21:08:17.388Z,14.84
2023-05-05T21:10:46.799Z,14.79
2023-05-05T21:13:16.311Z,14.76
2023-05-05T21:15:45.918Z,14.72
2023-05-05T21:18:15.310Z,14.68
2023-05-05T21:20:44.578Z,14.65
2023-05-05T21:23:13.877Z,14.63
2023-05-05T21:25:43.345Z,14.60
2023-05-05T21:28:12.618Z,14.57
2023-05-05T21:30:42.157Z,14.54
2023-05-05T21:33:11.501Z,14.53
2023-05-05T21:35:40.998Z,14.51
2023-05-05T21:38:10.702Z,14.49
2023-05-05T21:40:40.149Z,14.47
2023-05-05T21:43:09.502Z,14.45
2023-05-05T21:45:39.389Z,14.43
2023-05-05T21:48:09.400Z,14.42
2023-05-05T21:50:38.863Z,14.41
2023-05-05T21:53:08.120Z,14.39
2023-05-05T21:55:37.400Z,14.36
2023-05-05T21:58:06.607Z,14.33
2023-05-05T22:00:35.990Z,14.29
2023-05-05T22:03:05.585Z,14.27
2023-05-05T22:05:35.254Z,14.25
2023-05-05T22:08:04.985Z,14.22
2023-05-05T22:10:34.416Z,14.20
2023-05-05T22:13:04.515Z,14.18
2023-05-05T22:15:45.364Z,14.15
2023-05-05T22:18:16.221Z,14.13
2023-05-05T22:20:46.986Z,14.10
2023-05-05T22:23:16.632Z,14.06
2023-05-05T22:25:46.906Z,14.03
2023-05-05T22:28:16.375Z,13.99
2023-05-05T22:30:45.678Z,13.97
2023-05-05T22:33:15.886Z,13.95
2023-05-05T22:35:45.220Z,13.92
2023-05-05T22:38:15.308Z,13.90
2023-05-05T22:40:47.436Z,13.89
2023-05-05T22:43:17.088Z,13.87
2023-05-05T22:45:46.716Z,13.85
2023-05-05T22:48:17.184Z,13.84
2023-05-05T22:50:46.533Z,13.82
2023-05-05T22:53:15.766Z,13.79
2023-05-05T22:55:45.396Z,13.78
2023-05-05T22:58:15.027Z,13.77
2023-05-05T23:00:44.400Z,13.77
2023-05-05T23:03:14.601Z,13.76
2023-05-05T23:05:46.856Z,13.74
2023-05-05T23:08:18.665Z,13.73
2023-05-05T23:10:48.099Z,13.74
2023-05-05T23:13:17.748Z,13.74
2023-05-05T23:15:47.349Z,13.75
2023-05-05T23:18:16.824Z,13.75
2023-05-05T23:20:46.359Z,13.75
2023-05-05T23:23:15.812Z,13.76
2023-05-05T23:25:45.417Z,13.76
2023-05-05T23:28:14.672Z,13.74
2023-05-05T23:30:44.016Z,13.73
2023-05-05T23:33:14.065Z,13.71
2023-05-05T23:35:43.502Z,13.69
2023-05-05T23:38:12.832Z,13.69
2023-05-05T23:40:42.243Z,13.68
2023-05-05T23:43:12.161Z,13.66
2023-05-05T23:45:41.722Z,13.62
2023-05-05T23:48:13.373Z,13.57
2023-05-05T23:50:43.167Z,13.55
2023-05-05T23:53:16.193Z,13.53
2023-05-05T23:55:45.690Z,13.51
2023-05-05T23:58:14.937Z,13.49
